createdAt,value
2023-04-18T10:51:46.655Z,17794.4609
2023-04-18T10:52:48.288Z,18556.8457
2023-04-18T10:53:50.727Z,18797.4609
2023-04-18T10:54:51.564Z,18931.1543
2023-04-18T10:55:54.217Z,18986.0762
2023-04-18T10:56:54.841Z,19022.3086
2023-04-18T10:57:57.577Z,19010.3848
2023-04-18T10:58:58.199Z,18988.0762
2023-04-18T10:59:59.769Z,18973.3086
2023-04-18T11:01:01.646Z,18959.3848
2023-04-18T11:02:03.162Z,18971.7695
2023-04-18T11:03:05.613Z,18974.6914
2023-04-18T11:04:06.405Z,18964.3848
2023-04-18T11:05:08.049Z,18971.6914
2023-04-18T11:06:09.664Z,18951.4609
2023-04-18T11:07:11.407Z,18943.0762
2023-04-18T11:08:13.050Z,18935.3086
2023-04-18T11:09:14.642Z,18944.2305
2023-04-18T11:10:16.202Z,18928.2305
2023-04-18T11:11:17.920Z,18926.2305
2023-04-18T11:12:19.858Z,18935.5391
2023-04-18T11:13:21.857Z,18947.4609
2023-04-18T11:14:22.912Z,18959.0762
2023-04-18T11:15:24.583Z,18997.6152
2023-04-18T11:16:26.300Z,19034.7695
2023-04-18T11:17:27.927Z,19048.5391
2023-04-18T11:18:29.581Z,19028.9238
2023-04-18T11:19:31.206Z,19026.8457
2023-04-18T11:20:32.838Z,18990.7695
2023-04-18T11:21:34.454Z,18998.0000
2023-04-18T11:22:36.831Z,18990.0762
2023-04-18T11:23:37.742Z,18996.9238
2023-04-18T11:24:39.456Z,18990.6914
2023-04-18T11:25:41.003Z,18985.0000
2023-04-18T11:26:42.792Z,18968.8457
2023-04-18T11:27:44.408Z,19007.6152
2023-04-18T11:28:46.035Z,19006.2305
2023-04-18T11:29:47.698Z,19040.9238
2023-04-18T11:30:49.374Z,19070.7695
2023-04-18T11:31:51.038Z,19074.6914
2023-04-18T11:32:52.708Z,19044.4609
2023-04-18T11:33:54.192Z,19021.2305
2023-04-18T11:34:56.775Z,19026.3086
2023-04-18T11:35:57.539Z,19027.6914
2023-04-18T11:36:59.189Z,19003.6914
2023-04-18T11:38:00.871Z,18995.5391
2023-04-18T11:39:02.582Z,19011.4609
2023-04-18T11:40:04.206Z,19022.2305
2023-04-18T11:41:05.785Z,18996.0762
2023-04-18T11:42:07.499Z,18997.3086
2023-04-18T11:43:09.166Z,18995.7695
2023-04-18T11:44:10.776Z,19036.5391
2023-04-18T11:45:12.374Z,19065.1543
2023-04-18T11:46:14.098Z,19097.9238
2023-04-18T11:47:15.665Z,19072.1543
2023-04-18T11:48:17.448Z,19064.6914
2023-04-18T11:49:19.012Z,19109.0000
2023-04-18T11:50:20.634Z,19065.3848
2023-04-18T11:51:22.367Z,19059.3086
2023-04-18T11:52:23.909Z,19012.5391
2023-04-18T11:53:25.620Z,19012.1543
2023-04-18T11:54:27.241Z,18992.5391
2023-04-18T11:55:28.876Z,19008.0000
2023-04-18T11:56:30.499Z,19011.7695
2023-04-18T11:57:32.131Z,19012.6914
2023-04-18T11:58:33.773Z,18985.6914
2023-04-18T11:59:35.494Z,18978.3848
2023-04-18T12:00:37.054Z,18977.7695
2023-04-18T12:01:38.724Z,19105.5391
2023-04-18T12:02:40.494Z,19075.2305
2023-04-18T12:03:42.260Z,19073.0000
2023-04-18T12:04:44.165Z,19065.2305
2023-04-18T12:05:45.594Z,19116.2305
2023-04-18T12:06:47.018Z,19097.4609
2023-04-18T12:07:48.603Z,19072.7695
2023-04-18T12:08:51.207Z,19051.0000
2023-04-18T12:09:51.936Z,19015.4609
2023-04-18T12:10:54.259Z,19008.7695
2023-04-18T12:11:55.204Z,19014.6914
2023-04-18T12:12:56.818Z,19018.4609
2023-04-18T12:13:58.444Z,18997.0000
2023-04-18T12:15:00.292Z,19002.5391
2023-04-18T12:16:01.805Z,19045.5391
2023-04-18T12:17:03.310Z,19072.7695
2023-04-18T12:18:05.810Z,19076.5391
2023-04-18T12:19:06.627Z,19076.0000
2023-04-18T12:20:08.322Z,19068.7695
2023-04-18T12:21:09.933Z,19067.0762
2023-04-18T12:22:12.221Z,19038.6914
2023-04-18T12:23:13.450Z,19002.0000
2023-04-18T12:24:16.626Z,19002.0000
2023-04-18T12:25:16.605Z,18991.2305
2023-04-18T12:26:18.191Z,18996.7695
2023-04-18T12:27:19.858Z,18973.3086
2023-04-18T12:28:21.487Z,18997.6152
2023-04-18T12:29:23.153Z,19025.6914
2023-04-18T12:30:24.846Z,19023.6152
2023-04-18T12:31:26.457Z,19015.9238
2023-04-18T12:32:28.068Z,19043.0000
2023-04-18T12:33:29.729Z,19074.2305
2023-04-18T12:34:31.310Z,19039.0762
2023-04-18T12:35:33.394Z,19024.0762
2023-04-18T12:36:34.636Z,19002.2305
2023-04-18T12:37:36.270Z,18986.7695
2023-04-18T12:38:37.914Z,18985.9238
2023-04-18T12:39:39.590Z,18998.6914
2023-04-18T12:40:41.252Z,19051.0762
2023-04-18T12:41:42.871Z,19032.7695
2023-04-18T12:42:44.494Z,19031.2305
2023-04-18T12:43:46.158Z,19058.2305
2023-04-18T12:44:48.044Z,19084.0762
2023-04-18T12:45:49.460Z,19050.6152
2023-04-18T12:46:51.210Z,19019.6152
2023-04-18T12:47:52.818Z,19036.0762
2023-04-18T12:48:54.363Z,19023.3848
2023-04-18T12:49:55.974Z,18992.7695
2023-04-18T12:50:57.731Z,18987.0762
2023-04-18T12:51:59.274Z,18979.0762
2023-04-18T12:53:00.882Z,18978.6914
2023-04-18T12:54:02.606Z,19073.9238
2023-04-18T12:55:04.204Z,19113.7695
2023-04-18T12:56:05.944Z,19085.1543
2023-04-18T12:57:07.482Z,19125.2305
2023-04-18T12:58:09.197Z,19117.6152
2023-04-18T12:59:10.780Z,19083.0000
2023-04-18T13:00:12.456Z,19048.8457
2023-04-18T13:01:14.247Z,19031.1543
2023-04-18T13:02:15.850Z,19027.6914
2023-04-18T13:03:17.400Z,19001.3086
2023-04-18T13:04:19.236Z,18965.5391
2023-04-18T13:05:21.388Z,18915.8457
2023-04-18T13:06:22.410Z,18925.0762
2023-04-18T13:07:23.927Z,18967.3848
2023-04-18T13:08:25.605Z,19012.3848
2023-04-18T13:09:27.213Z,18992.6914
2023-04-18T13:10:28.891Z,19023.4609
2023-04-18T13:11:30.870Z,19072.0000
2023-04-18T13:12:32.178Z,19083.6914
2023-04-18T13:13:35.604Z,19108.9238
2023-04-18T13:14:35.488Z,19057.0000
2023-04-18T13:15:37.097Z,19018.6914
2023-04-18T13:16:39.762Z,19006.1543
2023-04-18T13:17:40.485Z,18999.0762
2023-04-18T13:18:42.066Z,18980.3848
2023-04-18T13:19:43.716Z,18975.4609
2023-04-18T13:20:45.410Z,18990.8457
2023-04-18T13:21:49.126Z,19056.7695
2023-04-18T13:22:48.775Z,19101.6152
2023-04-18T13:23:50.328Z,19133.5391
2023-04-18T13:24:51.924Z,19140.4609
2023-04-18T13:25:53.597Z,19060.1543
2023-04-18T13:26:55.241Z,19042.3086
2023-04-18T13:27:57.465Z,19038.2305
2023-04-18T13:28:58.524Z,19021.3086
2023-04-18T13:30:00.205Z,19062.0000
2023-04-18T13:31:01.801Z,19118.1543
2023-04-18T13:32:03.593Z,19121.6914
2023-04-18T13:33:05.224Z,19054.1543
2023-04-18T13:34:06.830Z,19028.9238
2023-04-18T13:35:08.424Z,19033.8457
2023-04-18T13:36:10.124Z,19081.8457
2023-04-18T13:37:11.773Z,19163.2305
2023-04-18T13:38:13.415Z,19157.4609
2023-04-18T13:39:15.126Z,19102.8457
2023-04-18T13:40:16.687Z,19075.6914
2023-04-18T13:41:18.291Z,19035.0000
2023-04-18T13:42:20.005Z,19017.1543
2023-04-18T13:43:21.652Z,19015.1543
2023-04-18T13:44:23.271Z,19009.6914
2023-04-18T13:45:24.842Z,19061.0000
2023-04-18T13:46:26.631Z,19055.1543
2023-04-18T13:47:28.395Z,19034.2305
2023-04-18T13:48:29.892Z,19058.5391
2023-04-18T13:49:31.492Z,19112.1543
2023-04-18T13:50:33.166Z,19090.9238
2023-04-18T13:51:34.818Z,19103.0762
2023-04-18T13:52:36.503Z,19063.1543
2023-04-18T13:53:38.108Z,19056.2305
2023-04-18T13:54:39.722Z,19053.4609
2023-04-18T13:55:41.372Z,19089.0762
2023-04-18T13:56:43.044Z,19167.7695
2023-04-18T13:57:44.709Z,19193.8457
2023-04-18T13:58:46.455Z,19228.5391
2023-04-18T13:59:47.961Z,19131.3086
2023-04-18T14:00:49.578Z,19114.4609
2023-04-18T14:01:51.260Z,19102.0000
2023-04-18T14:02:53.576Z,19081.1543
2023-04-18T14:03:54.761Z,19076.5391
2023-04-18T14:04:56.282Z,19066.9238
2023-04-18T14:05:57.856Z,19044.3086
2023-04-18T14:06:59.473Z,19071.0762
2023-04-18T14:08:01.160Z,19067.0762
2023-04-18T14:09:03.758Z,19056.6152
2023-04-18T14:10:05.377Z,19083.3086
2023-04-18T14:11:06.103Z,19096.1543
2023-04-18T14:12:07.889Z,19130.8457
2023-04-18T14:13:09.380Z,19145.9238
2023-04-18T14:14:11.100Z,19105.4609
2023-04-18T14:15:12.740Z,19091.1543
2023-04-18T14:16:14.351Z,19082.7695
2023-04-18T14:17:15.950Z,19078.9238
2023-04-18T14:18:17.640Z,19109.4609
2023-04-18T14:19:19.319Z,19101.6152
2023-04-18T14:20:21.437Z,19068.6914
2023-04-18T14:21:22.494Z,19077.8457
2023-04-18T14:22:24.213Z,19156.8457
2023-04-18T14:23:25.910Z,19188.8457
2023-04-18T14:24:27.521Z,19246.4609
2023-04-18T14:25:29.171Z,19210.2305
2023-04-18T14:26:30.843Z,19151.0762
2023-04-18T14:27:32.421Z,19136.1543
2023-04-18T14:28:34.134Z,19128.3086
2023-04-18T14:29:36.364Z,19122.8457
2023-04-18T14:30:37.456Z,19136.9238
2023-04-18T14:31:39.104Z,19172.0762
2023-04-18T14:32:40.806Z,19203.7695
2023-04-18T14:33:42.317Z,19190.5391
2023-04-18T14:34:44.087Z,19118.3086
2023-04-18T14:35:45.707Z,19104.6914
2023-04-18T14:36:47.278Z,19083.0762
2023-04-18T14:37:48.924Z,19089.4609
2023-04-18T14:38:50.646Z,19061.3848
2023-04-18T14:39:52.300Z,19055.9238
2023-04-18T14:40:54.010Z,19038.1543
2023-04-18T14:41:55.504Z,19027.6914
2023-04-18T14:42:57.204Z,19013.1543
2023-04-18T14:43:58.801Z,19032.2305
2023-04-18T14:45:00.552Z,19044.5391
2023-04-18T14:46:02.174Z,19060.6152
2023-04-18T14:47:03.873Z,19024.6152
2023-04-18T14:48:06.333Z,19016.6914
2023-04-18T14:49:07.061Z,19017.3848
2023-04-18T14:50:08.812Z,19020.1543
2023-04-18T14:51:10.416Z,19010.3086
2023-04-18T14:52:12.068Z,19014.9238
2023-04-18T14:53:13.656Z,19021.3848
2023-04-18T14:54:15.356Z,19082.3086
2023-04-18T14:55:16.991Z,19065.2305
2023-04-18T14:56:18.739Z,19110.9238
2023-04-18T14:57:20.240Z,19077.7695
2023-04-18T14:58:21.920Z,19067.0000
2023-04-18T14:59:23.535Z,19124.3086
2023-04-18T15:00:25.205Z,19077.8457
2023-04-18T15:01:26.921Z,19111.8457
2023-04-18T15:02:28.578Z,19115.7695
2023-04-18T15:03:31.043Z,19106.8457
2023-04-18T15:04:31.906Z,19100.4609
2023-04-18T15:05:33.501Z,19081.4609
2023-04-18T15:06:35.527Z,19083.9238
2023-04-18T15:07:36.737Z,19086.9238
2023-04-18T15:08:38.388Z,19065.9238
2023-04-18T15:09:40.109Z,19106.6152
2023-04-18T15:10:41.720Z,19131.4609
2023-04-18T15:11:43.610Z,19107.6914
2023-04-18T15:12:44.963Z,19074.3086
2023-04-18T15:13:46.681Z,19094.6914
2023-04-18T15:14:48.248Z,19114.0762
2023-04-18T15:15:50.482Z,19109.2305
2023-04-18T15:16:51.687Z,19085.0000
2023-04-18T15:17:53.314Z,19039.8457
2023-04-18T15:18:54.898Z,19040.8457
2023-04-18T15:19:56.495Z,19044.0762
2023-04-18T15:20:58.214Z,19079.0762
2023-04-18T15:22:00.556Z,19067.0762
2023-04-18T15:23:01.493Z,19081.6914
2023-04-18T15:24:03.099Z,19084.3848
2023-04-18T15:25:04.821Z,19074.1543
2023-04-18T15:26:06.485Z,19076.9238
2023-04-18T15:27:08.116Z,19077.0762
2023-04-18T15:28:09.713Z,19090.7695
2023-04-18T15:29:11.385Z,19099.3848
2023-04-18T15:30:13.061Z,19089.9238
2023-04-18T15:31:14.774Z,19073.8457
2023-04-18T15:32:16.446Z,19032.6152
2023-04-18T15:33:17.998Z,19100.4609
2023-04-18T15:34:19.675Z,19158.3086
2023-04-18T15:35:21.900Z,19183.9238
2023-04-18T15:36:23.037Z,19140.4609
2023-04-18T15:37:24.659Z,19074.2305
2023-04-18T15:38:26.228Z,19064.3848
2023-04-18T15:39:27.831Z,19097.0762
2023-04-18T15:40:29.578Z,19115.6914
2023-04-18T15:41:31.220Z,19104.8457
2023-04-18T15:42:32.966Z,19097.0000
2023-04-18T15:43:34.528Z,19098.6152
2023-04-18T15:44:36.176Z,19069.6152
2023-04-18T15:45:37.858Z,19061.1543
2023-04-18T15:46:41.410Z,19059.9238
2023-04-18T15:47:42.101Z,19046.1543
2023-04-18T15:48:42.776Z,19042.5391
2023-04-18T15:49:44.473Z,19064.3086
2023-04-18T15:50:46.041Z,19065.7695
2023-04-18T15:51:47.798Z,19053.9238
2023-04-18T15:52:49.411Z,19024.6914
2023-04-18T15:53:51.008Z,19044.6914
2023-04-18T15:54:52.604Z,19048.7695
2023-04-18T15:55:54.363Z,19038.0762
2023-04-18T15:56:55.925Z,19046.7695
2023-04-18T15:57:57.583Z,19031.3086
2023-04-18T15:58:59.266Z,18999.0000
2023-04-18T16:00:00.941Z,19058.2305
2023-04-18T16:01:02.562Z,19068.9238
2023-04-18T16:02:05.081Z,19081.5391
2023-04-18T16:03:05.957Z,19066.5391
2023-04-18T16:04:07.619Z,19040.8457
2023-04-18T16:05:09.908Z,19035.1543
2023-04-18T16:06:10.778Z,19036.9238
2023-04-18T16:07:12.444Z,19039.4609
2023-04-18T16:08:14.066Z,19016.3086
2023-04-18T16:09:15.709Z,19010.7695
2023-04-18T16:10:17.347Z,19018.4609
2023-04-18T16:11:18.970Z,19027.7695
2023-04-18T16:12:20.748Z,19045.0762
2023-04-18T16:13:22.284Z,19059.8457
2023-04-18T16:14:23.947Z,19052.9238
2023-04-18T16:15:25.528Z,19022.9238
2023-04-18T16:16:27.211Z,19038.5391
2023-04-18T16:17:28.997Z,19032.3848
2023-04-18T16:18:30.534Z,19041.6152
2023-04-18T16:19:32.943Z,19026.6152
2023-04-18T16:20:33.833Z,19025.2305
2023-04-18T16:21:35.416Z,19017.1543
2023-04-18T16:22:37.104Z,19031.0762
2023-04-18T16:23:38.712Z,19029.9238
2023-04-18T16:24:42.011Z,19018.2305
2023-04-18T16:25:41.998Z,18987.6152
2023-04-18T16:26:43.596Z,18991.0762
2023-04-18T16:27:45.298Z,19025.6152
2023-04-18T16:28:46.874Z,19065.0762
2023-04-18T16:29:48.502Z,19055.8457
2023-04-18T16:30:50.181Z,19059.0000
2023-04-18T16:31:52.067Z,19054.9238
2023-04-18T16:32:54.159Z,19059.1543
2023-04-18T16:33:55.345Z,19033.5391
2023-04-18T16:34:57.885Z,19026.2305
2023-04-18T16:35:58.509Z,19009.7695
2023-04-18T16:37:01.177Z,19014.4609
2023-04-18T16:38:03.664Z,19023.4609
2023-04-18T16:39:08.189Z,19014.1426
2023-04-18T16:40:09.878Z,19016.9238
2023-04-18T16:41:11.561Z,19013.3848
2023-04-18T16:42:15.653Z,19013.7695
2023-04-18T16:43:14.776Z,19025.6152
2023-04-18T16:44:16.452Z,19025.2305
2023-04-18T16:45:17.962Z,19032.4609
2023-04-18T16:46:19.723Z,19034.0762
2023-04-18T16:47:21.277Z,19042.0000
2023-04-18T16:48:22.983Z,19030.5391
2023-04-18T16:49:24.590Z,19033.9238
2023-04-18T16:50:26.273Z,19006.7695
2023-04-18T16:51:27.885Z,19028.0000
2023-04-18T16:52:29.543Z,19049.4609
2023-04-18T16:53:31.518Z,19048.6152
2023-04-18T16:54:32.836Z,19028.2305
2023-04-18T16:55:34.470Z,19003.3086
2023-04-18T16:56:36.160Z,18995.8457
2023-04-18T16:57:37.834Z,19013.6152
2023-04-18T16:58:39.380Z,19025.6152
2023-04-18T16:59:40.997Z,19092.3086
2023-04-18T17:00:42.653Z,19081.6914
2023-04-18T17:01:44.329Z,19079.4609
2023-04-18T17:02:46.007Z,19064.2305
2023-04-18T17:03:47.704Z,19059.6152
2023-04-18T17:04:49.307Z,19075.0762
2023-04-18T17:05:50.817Z,19097.3848
2023-04-18T17:06:52.552Z,19077.3848
2023-04-18T17:07:54.107Z,19093.0000
2023-04-18T17:08:55.960Z,19090.7695
2023-04-18T17:09:57.484Z,19061.7695
2023-04-18T17:10:59.191Z,19083.4609
2023-04-18T17:12:00.785Z,19050.6152
2023-04-18T17:13:02.694Z,19054.3848
2023-04-18T17:14:04.145Z,19058.1543
2023-04-18T17:15:06.026Z,19043.8457
2023-04-18T17:16:07.429Z,19031.1543
2023-04-18T17:17:09.051Z,19050.6914
2023-04-18T17:18:10.796Z,19061.0762
2023-04-18T17:19:12.526Z,19050.8457
2023-04-18T17:20:14.983Z,19034.0000
2023-04-18T17:21:15.663Z,19056.0762
2023-04-18T17:22:17.277Z,19047.9238
2023-04-18T17:23:18.977Z,19067.2305
2023-04-18T17:24:20.648Z,19076.0000
2023-04-18T17:25:22.481Z,19063.1543
2023-04-18T17:26:23.917Z,19082.1543
2023-04-18T17:27:25.571Z,19098.0762
2023-04-18T17:28:27.217Z,19103.5391
2023-04-18T17:29:28.879Z,19085.1543
2023-04-18T17:30:30.970Z,19073.3086
2023-04-18T17:31:32.262Z,19085.3848
2023-04-18T17:32:33.908Z,19081.0000
2023-04-18T17:33:36.406Z,19073.5391
2023-04-18T17:34:37.165Z,19093.5391
2023-04-18T17:35:38.797Z,19125.8457
2023-04-18T17:36:40.416Z,19120.0762
2023-04-18T17:37:42.106Z,19134.2305
2023-04-18T17:38:43.764Z,19129.6152
2023-04-18T17:39:45.341Z,19133.6152
2023-04-18T17:40:47.486Z,19130.2305
2023-04-18T17:41:48.573Z,19137.4609
2023-04-18T17:42:50.327Z,19120.9238
2023-04-18T17:43:51.946Z,19091.8457
2023-04-18T17:44:53.651Z,19070.7695
2023-04-18T17:45:55.318Z,19092.1543
2023-04-18T17:46:56.978Z,19078.7695
2023-04-18T17:47:58.793Z,19070.0762
2023-04-18T17:49:00.553Z,19103.7695
2023-04-18T17:50:02.024Z,19122.3848
2023-04-18T17:51:03.685Z,19108.7695
2023-04-18T17:52:05.645Z,19112.4609
2023-04-18T17:53:06.936Z,19085.5391
2023-04-18T17:54:08.686Z,19077.0000
2023-04-18T17:55:10.358Z,19073.4609
2023-04-18T17:56:12.102Z,19070.2305
2023-04-18T17:57:13.513Z,19081.4609
2023-04-18T17:58:15.291Z,19088.4609
2023-04-18T17:59:16.970Z,19084.8457
2023-04-18T18:00:18.534Z,19080.4609
2023-04-18T18:01:20.182Z,19083.3848
2023-04-18T18:02:23.243Z,19079.2305
2023-04-18T18:03:23.417Z,19075.8457
2023-04-18T18:04:28.180Z,19081.4609
2023-04-18T18:05:26.684Z,19074.7695
2023-04-18T18:06:28.367Z,19086.0000
2023-04-18T18:07:29.977Z,19075.3086
2023-04-18T18:08:31.618Z,19089.1543
2023-04-18T18:09:33.198Z,19094.1543
2023-04-18T18:10:34.954Z,19095.9238
2023-04-18T18:11:36.658Z,19098.6914
2023-04-18T18:12:38.204Z,19090.4609
2023-04-18T18:13:39.782Z,19092.6914
2023-04-18T18:14:41.505Z,19094.0000
2023-04-18T18:15:43.216Z,19094.0000
2023-04-18T18:16:44.866Z,19096.6152
2023-04-18T18:17:46.494Z,19093.1543
2023-04-18T18:18:48.074Z,19093.1543
2023-04-18T18:19:49.734Z,19104.1543
2023-04-18T18:20:51.370Z,19104.3086
2023-04-18T18:21:53.089Z,19103.0000
2023-04-18T18:22:54.662Z,19103.6152
2023-04-18T18:23:56.324Z,19109.5391
2023-04-18T18:24:57.969Z,19116.1543
2023-04-18T18:25:59.660Z,19118.6152
2023-04-18T18:27:01.279Z,19116.1543
2023-04-18T18:28:02.903Z,19121.8457
2023-04-18T18:29:04.511Z,19123.6152
2023-04-18T18:30:06.211Z,19125.0000
2023-04-18T18:31:07.908Z,19122.5391
2023-04-18T18:32:09.523Z,19127.5391
2023-04-18T18:33:11.983Z,19133.3086
2023-04-18T18:34:12.771Z,19135.3848
2023-04-18T18:35:14.462Z,19133.7695
2023-04-18T18:36:16.142Z,19121.6152
2023-04-18T18:37:17.704Z,19122.0762
2023-04-18T18:38:19.359Z,19132.3086
2023-04-18T18:39:21.094Z,19135.2305
2023-04-18T18:40:22.682Z,19131.0762
2023-04-18T18:41:24.646Z,19133.4609
2023-04-18T18:42:25.968Z,19139.6152
2023-04-18T18:43:27.593Z,19141.9238
2023-04-18T18:44:29.204Z,19142.0000
2023-04-18T18:45:30.887Z,19136.8457
2023-04-18T18:46:32.685Z,19144.1543
2023-04-18T18:47:34.922Z,19143.1543
2023-04-18T18:48:35.816Z,19141.4609
2023-04-18T18:49:37.483Z,19143.1543
2023-04-18T18:50:39.133Z,19139.3086
2023-04-18T18:51:40.853Z,19150.2305
2023-04-18T18:52:42.435Z,19145.3848
2023-04-18T18:53:45.160Z,19144.7695
2023-04-18T18:54:45.716Z,19143.7695
2023-04-18T18:55:47.290Z,19142.6152
2023-04-18T18:56:49.024Z,19153.3848
2023-04-18T18:57:50.694Z,19141.2305
2023-04-18T18:58:52.439Z,19142.2305
2023-04-18T18:59:55.721Z,19143.9238
2023-04-18T19:00:55.575Z,19151.3848
2023-04-18T19:01:57.292Z,19154.7695
2023-04-18T19:02:59.713Z,19160.3848
2023-04-18T19:04:00.710Z,19161.3848
2023-04-18T19:05:02.317Z,19153.3848
2023-04-18T19:06:03.728Z,19158.5391
2023-04-18T19:07:05.449Z,19155.7695
2023-04-18T19:08:07.197Z,19167.7695
2023-04-18T19:09:08.757Z,19159.4609
2023-04-18T19:10:10.370Z,19168.5391
2023-04-18T19:11:12.016Z,19167.0000
2023-04-18T19:12:13.738Z,19167.6152
2023-04-18T19:13:15.397Z,19164.2305
2023-04-18T19:14:17.019Z,19165.1543
2023-04-18T19:15:18.567Z,19167.6152
2023-04-18T19:16:20.347Z,19169.6914
2023-04-18T19:17:22.037Z,19168.3848
2023-04-18T19:18:23.631Z,19168.9238
2023-04-18T19:19:25.136Z,19165.8457
2023-04-18T19:20:28.721Z,19173.7695
2023-04-18T19:21:28.513Z,19177.3086
2023-04-18T19:22:30.230Z,19174.3848
2023-04-18T19:23:32.096Z,19182.8457
2023-04-18T19:24:33.448Z,19181.6152
2023-04-18T19:25:35.048Z,19182.3086
2023-04-18T19:26:36.727Z,19182.5391
2023-04-18T19:27:38.414Z,19179.0762
2023-04-18T19:28:40.156Z,19190.0762
2023-04-18T19:29:41.679Z,19192.3848
2023-04-18T19:30:43.314Z,19190.9238
2023-04-18T19:31:44.942Z,19187.6914
2023-04-18T19:32:46.695Z,19186.0000
2023-04-18T19:33:48.327Z,19189.4609
2023-04-18T19:34:49.905Z,19190.0000
2023-04-18T19:35:51.610Z,19190.6914
2023-04-18T19:36:53.237Z,19188.3848
2023-04-18T19:37:54.911Z,19192.0762
2023-04-18T19:38:56.611Z,19192.3848
2023-04-18T19:39:58.216Z,19185.4609
2023-04-18T19:40:59.803Z,19196.9238
2023-04-18T19:42:01.400Z,19197.6152
2023-04-18T19:43:03.619Z,19196.2305
2023-04-18T19:44:04.773Z,19197.4609
2023-04-18T19:45:06.432Z,19199.8457
2023-04-18T19:46:08.199Z,19197.6914
2023-04-18T19:47:09.717Z,19196.7695
2023-04-18T19:48:11.404Z,19194.5391
2023-04-18T19:49:13.308Z,19196.6152
2023-04-18T19:50:14.723Z,19200.5391
2023-04-18T19:51:16.272Z,19197.1543
2023-04-18T19:52:18.007Z,19194.5391
2023-04-18T19:53:20.301Z,19202.1543
2023-04-18T19:54:21.972Z,19204.9238
2023-04-18T19:55:23.024Z,19201.6152
2023-04-18T19:56:24.532Z,19196.6914
2023-04-18T19:57:26.256Z,19200.7695
2023-04-18T19:58:27.819Z,19215.2305
2023-04-18T19:59:29.515Z,19212.4609
2023-04-18T20:00:31.134Z,19212.4609
2023-04-18T20:01:32.854Z,19212.4609
2023-04-18T20:02:34.640Z,19215.1543
2023-04-18T20:03:36.276Z,19212.1543
2023-04-18T20:04:37.985Z,19210.2305
2023-04-18T20:05:39.409Z,19220.8457
2023-04-18T20:06:41.009Z,19223.1543
2023-04-18T20:07:42.676Z,19226.3848
2023-04-18T20:08:44.326Z,19219.1543
2023-04-18T20:09:45.957Z,19227.1543
2023-04-18T20:10:47.601Z,19219.0000
2023-04-18T20:11:49.261Z,19223.0000
2023-04-18T20:12:50.843Z,19221.7695
2023-04-18T20:13:52.598Z,19222.2305
2023-04-18T20:14:54.175Z,19217.2305
2023-04-18T20:15:55.834Z,19222.0000
2023-04-18T20:16:57.568Z,19224.8457
2023-04-18T20:17:59.256Z,19221.2305
2023-04-18T20:19:00.803Z,19225.5391
2023-04-18T20:20:02.380Z,19228.0000
2023-04-18T20:21:04.087Z,19225.3086
2023-04-18T20:22:05.697Z,19225.7695
2023-04-18T20:23:07.309Z,19227.7695
2023-04-18T20:24:09.026Z,19230.9238
2023-04-18T20:25:10.653Z,19232.6914
2023-04-18T20:26:13.094Z,19227.7695
2023-04-18T20:27:13.890Z,19235.1543
2023-04-18T20:28:15.581Z,19226.9238
2023-04-18T20:29:17.285Z,19228.4609
2023-04-18T20:30:18.856Z,19232.4609
2023-04-18T20:31:20.574Z,19239.2305
2023-04-18T20:32:22.139Z,19244.8457
2023-04-18T20:33:23.825Z,19243.7695
2023-04-18T20:34:25.506Z,19246.6914
2023-04-18T20:35:27.163Z,19238.3848
2023-04-18T20:36:28.777Z,19239.3848
2023-04-18T20:37:30.445Z,19252.3086
2023-04-18T20:38:32.092Z,19257.3086
2023-04-18T20:39:33.776Z,19250.2305
2023-04-18T20:40:35.354Z,19246.7695
2023-04-18T20:41:37.022Z,19248.8457
2023-04-18T20:42:38.637Z,19245.6152
2023-04-18T20:43:40.370Z,19244.3848
2023-04-18T20:44:42.074Z,19246.0000
2023-04-18T20:45:43.650Z,19246.2305
2023-04-18T20:46:45.274Z,19244.3086
2023-04-18T20:47:46.957Z,19247.4609
2023-04-18T20:48:48.510Z,19243.0762
2023-04-18T20:49:50.165Z,19245.0762
2023-04-18T20:50:51.947Z,19246.7695
2023-04-18T20:51:53.424Z,19248.8457
2023-04-18T20:52:55.162Z,19249.9238
2023-04-18T20:53:56.716Z,19254.2305
2023-04-18T20:54:58.477Z,19260.5391
2023-04-18T20:56:00.086Z,19255.1543
2023-04-18T20:57:01.719Z,19256.4609
2023-04-18T20:58:03.335Z,19258.9238
2023-04-18T20:59:05.068Z,19250.9238
2023-04-18T21:00:06.685Z,19251.4609
2023-04-18T21:01:08.356Z,19248.9238
2023-04-18T21:02:10.089Z,19251.1543
2023-04-18T21:03:11.750Z,19253.6914
2023-04-18T21:04:13.680Z,19264.6152
2023-04-18T21:05:14.971Z,19269.4609
2023-04-18T21:06:16.506Z,19288.7695
2023-04-18T21:07:18.199Z,19296.6914
2023-04-18T21:08:19.820Z,19292.0000
2023-04-18T21:09:21.488Z,19279.3848
2023-04-18T21:10:23.161Z,19275.1543
2023-04-18T21:11:24.790Z,19264.9238
2023-04-18T21:12:26.351Z,19260.6152
2023-04-18T21:13:28.083Z,19257.2305
2023-04-18T21:14:29.681Z,19256.8457
2023-04-18T21:15:31.401Z,19257.9238
2023-04-18T21:16:33.141Z,19257.1543
2023-04-18T21:17:34.692Z,19261.0000
2023-04-18T21:18:36.541Z,19270.6152
2023-04-18T21:19:37.977Z,19297.0762
2023-04-18T21:20:39.672Z,19306.5391
2023-04-18T21:21:41.259Z,19300.7695
2023-04-18T21:22:42.911Z,19282.8457
2023-04-18T21:23:44.542Z,19275.9238
2023-04-18T21:24:46.190Z,19266.6914
2023-04-18T21:25:47.903Z,19270.0000
2023-04-18T21:26:49.441Z,19267.6914
2023-04-18T21:27:51.149Z,19261.5391
2023-04-18T21:28:52.755Z,19261.6152
2023-04-18T21:29:54.440Z,19267.8457
2023-04-18T21:30:56.164Z,19264.0762
2023-04-18T21:31:57.785Z,19268.3086
2023-04-18T21:32:59.377Z,19294.2305
2023-04-18T21:34:01.068Z,19299.8457
2023-04-18T21:35:03.605Z,19298.9238
2023-04-18T21:36:04.353Z,19293.6152
2023-04-18T21:37:05.962Z,19304.4609
2023-04-18T21:38:07.538Z,19286.8457
2023-04-18T21:39:09.241Z,19280.3848
2023-04-18T21:40:10.952Z,19273.6914
2023-04-18T21:41:12.612Z,19276.6914
2023-04-18T21:42:14.110Z,19273.6914
2023-04-18T21:43:15.841Z,19266.6914
2023-04-18T21:44:17.477Z,19272.6152
2023-04-18T21:45:19.194Z,19276.1543
2023-04-18T21:46:24.220Z,19289.0762
2023-04-18T21:47:22.402Z,19306.5391
2023-04-18T21:48:24.013Z,19311.8457
2023-04-18T21:49:25.643Z,19306.3848
2023-04-18T21:50:27.306Z,19302.1543
2023-04-18T21:51:29.113Z,19289.6152
2023-04-18T21:52:30.597Z,19285.6152
2023-04-18T21:53:32.259Z,19278.8457
2023-04-18T21:54:33.881Z,19276.8457
2023-04-18T21:55:35.561Z,19274.8457
2023-04-18T21:56:37.224Z,19270.0000
2023-04-18T21:57:38.826Z,19279.5391
2023-04-18T21:58:40.453Z,19279.9238
2023-04-18T21:59:42.209Z,19291.0762
2023-04-18T22:00:43.846Z,19307.6152
2023-04-18T22:01:45.449Z,19314.6914
2023-04-18T22:02:47.313Z,19311.0762
2023-04-18T22:03:48.888Z,19301.6914
2023-04-18T22:04:50.332Z,19295.0762
2023-04-18T22:05:52.548Z,19280.8457
2023-04-18T22:06:53.682Z,19278.0762
2023-04-18T22:07:58.458Z,19277.0000
2023-04-18T22:08:56.928Z,19277.9238
2023-04-18T22:09:58.606Z,19278.0000
2023-04-18T22:11:01.142Z,19287.1543
2023-04-18T22:12:01.958Z,19302.1543
2023-04-18T22:13:03.601Z,19311.0762
2023-04-18T22:14:05.216Z,19319.1543
2023-04-18T22:15:06.817Z,19315.9238